createdAt,value
2023-02-09T00:01:31.910Z,23.97
2023-02-09T00:04:00.968Z,24.30
2023-02-09T00:06:33.322Z,18.77
2023-02-09T00:09:01.051Z,15.53
2023-02-09T00:11:49.957Z,17.37
2023-02-09T00:14:22.169Z,17.33
2023-02-09T00:16:51.256Z,15.23
2023-02-09T00:19:20.658Z,13.47
2023-02-09T00:21:49.144Z,11.80
2023-02-09T00:24:17.049Z,14.13
2023-02-09T00:26:44.702Z,18.27
2023-02-09T00:29:12.862Z,18.93
2023-02-09T00:31:40.654Z,14.23
2023-02-09T00:34:08.554Z,13.30
2023-02-09T00:36:36.247Z,11.97
2023-02-09T00:39:03.852Z,12.77
2023-02-09T00:41:50.151Z,18.90
2023-02-09T00:44:20.659Z,13.67
2023-02-09T00:46:49.305Z,19.17
2023-02-09T00:49:16.990Z,21.17
2023-02-09T00:51:44.735Z,26.00
2023-02-09T00:54:13.517Z,26.80
2023-02-09T00:56:41.055Z,31.87
2023-02-09T00:59:08.568Z,37.40
2023-02-09T01:01:36.615Z,38.80
2023-02-09T01:04:04.944Z,42.63
2023-02-09T01:06:32.923Z,36.57
2023-02-09T01:09:01.331Z,36.73
2023-02-09T01:11:29.931Z,33.73
2023-02-09T01:14:00.444Z,30.70
2023-02-09T01:16:31.757Z,27.20
2023-02-09T01:19:01.872Z,28.07
2023-02-09T01:21:30.647Z,27.53
2023-02-09T01:24:01.259Z,29.87
2023-02-09T01:26:28.909Z,26.40
2023-02-09T01:28:56.452Z,24.20
2023-02-09T01:31:33.922Z,25.57
2023-02-09T01:34:04.877Z,24.03
2023-02-09T01:36:34.021Z,26.27
2023-02-09T01:39:03.981Z,19.20
2023-02-09T01:41:32.908Z,22.07
2023-02-09T01:44:11.045Z,18.67
2023-02-09T01:46:40.049Z,16.63
2023-02-09T01:49:10.540Z,20.70
2023-02-09T01:51:46.875Z,22.07
2023-02-09T01:54:25.673Z,19.33
2023-02-09T01:57:10.462Z,14.97
2023-02-09T01:59:42.009Z,18.43
2023-02-09T02:02:10.679Z,17.63
2023-02-09T02:04:39.612Z,20.47
2023-02-09T02:07:33.421Z,18.47
2023-02-09T02:10:03.058Z,17.33
2023-02-09T02:12:32.616Z,13.77
2023-02-09T02:15:00.245Z,20.17
2023-02-09T02:17:55.454Z,17.43
2023-02-09T02:21:04.534Z,21.93
2023-02-09T02:23:58.129Z,16.13
2023-02-09T02:26:40.506Z,16.40
2023-02-09T02:30:03.015Z,12.60
2023-02-09T02:32:45.354Z,12.20
2023-02-09T02:35:31.017Z,13.63
2023-02-09T02:38:17.180Z,15.70
2023-02-09T02:41:10.779Z,13.60
2023-02-09T02:43:53.268Z,19.57
2023-02-09T02:46:36.034Z,18.37
2023-02-09T02:49:18.136Z,16.97
2023-02-09T02:51:49.348Z,17.67
2023-02-09T02:54:45.039Z,15.67
2023-02-09T02:57:21.254Z,24.40
2023-02-09T03:00:23.656Z,16.10
2023-02-09T03:02:55.822Z,18.60
2023-02-09T03:05:25.698Z,11.83
2023-02-09T03:07:53.284Z,12.57
2023-02-09T03:10:35.831Z,15.73
2023-02-09T03:13:26.971Z,17.00
2023-02-09T03:16:48.055Z,21.47
2023-02-09T03:19:58.492Z,30.67
2023-02-09T03:22:37.118Z,21.50
2023-02-09T03:25:34.216Z,18.17
2023-02-09T03:28:17.223Z,16.07
2023-02-09T03:30:50.171Z,21.80
2023-02-09T03:33:25.245Z,15.27
2023-02-09T03:35:58.765Z,24.80
2023-02-09T03:38:27.164Z,25.33
2023-02-09T03:40:55.408Z,28.77
2023-02-09T03:43:42.885Z,24.77
2023-02-09T03:46:10.552Z,20.00
2023-02-09T03:48:38.979Z,25.30
2023-02-09T03:51:07.101Z,21.17
2023-02-09T03:53:37.242Z,25.73
2023-02-09T03:56:07.910Z,34.97
2023-02-09T03:58:36.331Z,66.70
2023-02-09T04:01:09.935Z,50.10
2023-02-09T04:03:39.915Z,28.33
2023-02-09T04:06:10.728Z,22.73
2023-02-09T04:08:38.388Z,29.83
2023-02-09T04:11:06.044Z,12.43
2023-02-09T04:13:33.504Z,15.03
2023-02-09T04:16:01.236Z,14.87
2023-02-09T04:18:28.727Z,14.83
2023-02-09T04:20:56.190Z,13.93
2023-02-09T04:23:23.659Z,17.77
2023-02-09T04:25:51.178Z,18.03
2023-02-09T04:28:21.682Z,16.27
2023-02-09T04:30:54.391Z,15.27
2023-02-09T04:33:24.049Z,14.60
2023-02-09T04:35:52.964Z,30.27
2023-02-09T04:38:22.027Z,28.80
2023-02-09T04:40:52.190Z,19.53
2023-02-09T04:43:20.024Z,16.17
2023-02-09T04:45:48.780Z,22.07
2023-02-09T04:48:21.267Z,30.97
2023-02-09T04:50:49.598Z,22.40
2023-02-09T04:53:17.865Z,29.43
2023-02-09T04:55:47.421Z,24.47
2023-02-09T04:58:38.288Z,27.20
2023-02-09T05:01:06.844Z,27.03
2023-02-09T05:03:34.628Z,32.67
2023-02-09T05:06:05.495Z,30.93
2023-02-09T05:08:33.528Z,29.97
2023-02-09T05:11:01.381Z,21.60
2023-02-09T05:13:29.801Z,20.97
2023-02-09T05:15:57.629Z,22.07
2023-02-09T05:18:26.307Z,18.57
2023-02-09T05:20:53.776Z,14.03
2023-02-09T05:23:21.521Z,14.63
2023-02-09T05:25:49.016Z,13.37
2023-02-09T05:28:16.793Z,22.67
2023-02-09T05:30:44.883Z,20.23
2023-02-09T05:33:12.587Z,19.23
2023-02-09T05:35:40.227Z,21.17
2023-02-09T05:38:07.771Z,22.00
2023-02-09T05:40:35.354Z,23.97
2023-02-09T05:43:03.481Z,18.23
2023-02-09T05:45:31.003Z,27.90
2023-02-09T05:47:58.471Z,27.07
2023-02-09T05:50:26.042Z,25.13
2023-02-09T05:52:58.281Z,22.73
2023-02-09T05:55:25.979Z,33.20
2023-02-09T05:57:53.455Z,43.87
2023-02-09T06:00:21.617Z,18.23
2023-02-09T06:02:51.607Z,19.93
2023-02-09T06:05:20.993Z,13.60
2023-02-09T06:07:49.509Z,15.63
2023-02-09T06:10:20.238Z,18.90
2023-02-09T06:12:48.077Z,15.13
2023-02-09T06:15:18.678Z,15.00
2023-02-09T06:17:46.452Z,18.50
2023-02-09T06:20:14.009Z,13.20
2023-02-09T06:22:41.530Z,14.93
2023-02-09T06:25:09.388Z,18.77
2023-02-09T06:27:36.974Z,18.67
2023-02-09T06:30:06.065Z,15.10
2023-02-09T06:32:33.518Z,26.23
2023-02-09T06:35:01.016Z,44.23
2023-02-09T06:37:28.445Z,38.77
2023-02-09T06:39:55.954Z,41.23
2023-02-09T06:42:23.819Z,30.00
2023-02-09T06:44:51.355Z,22.73
2023-02-09T06:47:18.792Z,29.10
2023-02-09T06:49:46.301Z,20.07
2023-02-09T06:52:13.892Z,30.73
2023-02-09T06:54:41.387Z,36.07
2023-02-09T06:57:08.932Z,25.20
2023-02-09T06:59:36.434Z,22.90
2023-02-09T07:02:03.938Z,28.23
2023-02-09T07:04:31.440Z,20.37
2023-02-09T07:06:58.905Z,13.40
2023-02-09T07:09:27.023Z,14.53
2023-02-09T07:11:54.579Z,14.37
2023-02-09T07:14:22.021Z,12.77
2023-02-09T07:16:49.490Z,14.47
2023-02-09T07:19:17.024Z,11.40
2023-02-09T07:21:44.494Z,13.93
2023-02-09T07:24:12.454Z,13.37
2023-02-09T07:26:40.001Z,12.97
2023-02-09T07:29:07.437Z,9.03
2023-02-09T07:31:34.993Z,9.43
2023-02-09T07:34:02.619Z,13.27
2023-02-09T07:36:30.103Z,11.60
2023-02-09T07:38:58.834Z,17.13
2023-02-09T07:41:27.868Z,16.73
2023-02-09T07:43:56.909Z,14.80
2023-02-09T07:46:25.714Z,9.10
2023-02-09T07:48:53.243Z,11.17
2023-02-09T07:51:25.415Z,14.63
2023-02-09T07:53:58.359Z,12.37
2023-02-09T07:56:27.727Z,13.37
2023-02-09T07:58:56.173Z,14.50
2023-02-09T08:01:25.644Z,11.40
2023-02-09T08:03:56.531Z,12.20
2023-02-09T08:06:45.954Z,12.00
2023-02-09T08:09:16.982Z,8.47
2023-02-09T08:12:06.048Z,8.90
2023-02-09T08:14:48.199Z,14.13
2023-02-09T08:17:27.942Z,7.67
2023-02-09T08:20:11.682Z,18.57
2023-02-09T08:22:46.627Z,27.27
2023-02-09T08:25:18.581Z,36.57
2023-02-09T08:27:47.759Z,10.33
2023-02-09T08:30:17.199Z,14.97
2023-02-09T08:32:46.065Z,15.83
2023-02-09T08:35:13.591Z,7.07
2023-02-09T08:37:41.120Z,10.80
2023-02-09T08:40:09.502Z,10.40
2023-02-09T08:42:36.980Z,7.93
2023-02-09T08:45:04.663Z,11.33
2023-02-09T08:47:32.118Z,17.00
2023-02-09T08:49:59.680Z,7.73
2023-02-09T08:52:27.288Z,9.67
2023-02-09T08:54:54.847Z,9.33
2023-02-09T08:57:24.208Z,10.67
2023-02-09T08:59:55.026Z,8.40
2023-02-09T09:02:22.666Z,7.40
2023-02-09T09:04:50.156Z,10.47
2023-02-09T09:07:17.639Z,13.30
2023-02-09T09:09:45.066Z,11.50
2023-02-09T09:12:12.594Z,8.83
2023-02-09T09:14:40.547Z,8.00
2023-02-09T09:17:08.046Z,10.83
2023-02-09T09:19:35.593Z,11.93
2023-02-09T09:22:03.730Z,9.43
2023-02-09T09:24:32.169Z,11.20
2023-02-09T09:26:59.649Z,12.77
2023-02-09T09:29:29.008Z,8.90
2023-02-09T09:31:56.969Z,10.27
2023-02-09T09:34:24.445Z,9.03
2023-02-09T09:36:52.094Z,9.07
2023-02-09T09:39:20.052Z,8.50
2023-02-09T09:41:52.376Z,8.77
2023-02-09T09:44:33.784Z,7.90
2023-02-09T09:47:08.917Z,10.80
2023-02-09T09:49:38.449Z,10.73
2023-02-09T09:52:24.810Z,7.53
2023-02-09T09:54:52.878Z,8.40
2023-02-09T09:57:25.638Z,10.03
2023-02-09T09:59:54.147Z,9.03
2023-02-09T10:02:32.594Z,7.27
2023-02-09T10:05:20.512Z,7.47
2023-02-09T10:08:05.631Z,9.43
2023-02-09T10:10:56.336Z,15.50
2023-02-09T10:13:37.574Z,9.73
2023-02-09T10:16:29.165Z,8.23
2023-02-09T10:19:03.505Z,7.90
2023-02-09T10:21:36.226Z,6.50
2023-02-09T10:24:09.300Z,8.40
2023-02-09T10:26:40.293Z,5.87
2023-02-09T10:29:13.862Z,7.67
2023-02-09T10:31:47.920Z,6.37
2023-02-09T10:34:24.412Z,9.80
2023-02-09T10:37:19.825Z,8.50
2023-02-09T10:40:01.627Z,15.13
2023-02-09T10:42:37.690Z,10.63
2023-02-09T10:45:21.002Z,6.50
2023-02-09T10:48:02.512Z,6.00
2023-02-09T10:50:32.320Z,5.53
2023-02-09T10:53:03.568Z,5.00
2023-02-09T10:55:41.654Z,8.63
2023-02-09T10:58:24.954Z,7.70
2023-02-09T11:01:24.787Z,5.97
2023-02-09T11:04:06.693Z,6.20
2023-02-09T11:06:56.641Z,5.77
2023-02-09T11:09:42.848Z,5.53
2023-02-09T11:12:13.114Z,6.27
2023-02-09T11:14:44.580Z,5.27
2023-02-09T11:17:31.625Z,5.20
2023-02-09T11:20:26.719Z,6.80
2023-02-09T11:23:24.983Z,6.83
2023-02-09T11:26:28.361Z,5.40
2023-02-09T11:29:14.249Z,4.97
2023-02-09T11:32:12.793Z,5.37
2023-02-09T11:35:05.046Z,8.37
2023-02-09T11:38:01.716Z,5.57
2023-02-09T11:40:54.057Z,6.43
2023-02-09T11:43:38.071Z,13.70
2023-02-09T11:46:18.993Z,6.57
2023-02-09T11:48:57.599Z,5.97
2023-02-09T11:51:26.953Z,58.63
2023-02-09T11:54:22.561Z,6.50
2023-02-09T11:57:03.271Z,9.50
2023-02-09T11:59:38.763Z,8.33
2023-02-09T12:02:38.741Z,15.33
2023-02-09T12:05:11.347Z,7.63
2023-02-09T12:07:51.965Z,10.27
2023-02-09T12:10:43.391Z,6.60
2023-02-09T12:13:28.810Z,6.83
2023-02-09T12:16:08.834Z,7.40
2023-02-09T12:18:37.547Z,8.97
2023-02-09T12:21:07.101Z,12.80
2023-02-09T12:23:35.244Z,11.97
2023-02-09T12:26:15.538Z,18.50
2023-02-09T12:28:54.566Z,7.33
2023-02-09T12:31:26.444Z,6.20
2023-02-09T12:33:59.804Z,6.30
2023-02-09T12:36:37.715Z,9.03
2023-02-09T12:39:26.678Z,6.17
2023-02-09T12:41:56.585Z,18.27
2023-02-09T12:44:26.805Z,13.20
2023-02-09T12:46:57.952Z,21.17
2023-02-09T12:49:28.217Z,15.30
2023-02-09T12:52:15.157Z,9.93
2023-02-09T12:54:56.688Z,7.60
2023-02-09T12:57:25.467Z,8.03
2023-02-09T12:59:52.846Z,10.13
2023-02-09T13:02:24.171Z,15.20
2023-02-09T13:04:59.908Z,8.00
2023-02-09T13:08:02.253Z,8.63
2023-02-09T13:10:41.587Z,10.43
2023-02-09T13:13:13.474Z,27.70
2023-02-09T13:16:04.765Z,9.30
2023-02-09T13:19:02.910Z,7.83
2023-02-09T13:21:52.399Z,19.53
2023-02-09T13:24:37.187Z,6.07
2023-02-09T13:27:20.396Z,8.00
2023-02-09T13:30:00.640Z,6.73
2023-02-09T13:32:36.176Z,6.67
2023-02-09T13:35:20.504Z,5.20
2023-02-09T13:37:56.608Z,11.43
2023-02-09T13:40:28.854Z,11.57
2023-02-09T13:43:20.250Z,10.03
2023-02-09T13:45:54.848Z,8.90
2023-02-09T13:48:29.248Z,14.37
2023-02-09T13:51:02.568Z,5.60
2023-02-09T13:53:31.897Z,5.97
2023-02-09T13:56:03.477Z,5.50
2023-02-09T13:58:38.455Z,5.77
2023-02-09T14:01:16.905Z,7.77
2023-02-09T14:03:58.821Z,6.37
2023-02-09T14:06:47.059Z,8.67
2023-02-09T14:09:30.071Z,4.87
2023-02-09T14:12:09.646Z,5.30
2023-02-09T14:15:06.422Z,7.63
2023-02-09T14:17:35.743Z,7.43
2023-02-09T14:20:04.706Z,8.13
2023-02-09T14:22:37.394Z,7.00
2023-02-09T14:25:18.354Z,7.60
2023-02-09T14:27:49.131Z,8.07
2023-02-09T14:30:29.628Z,6.27
2023-02-09T14:33:00.866Z,5.77
2023-02-09T14:35:30.860Z,8.60
2023-02-09T14:38:01.740Z,10.40
2023-02-09T14:40:31.732Z,8.30
2023-02-09T14:43:14.904Z,11.20
2023-02-09T14:45:46.460Z,14.37
2023-02-09T14:48:26.287Z,12.17
2023-02-09T14:51:01.628Z,31.50
2023-02-09T14:53:32.489Z,7.83
2023-02-09T14:56:00.252Z,9.77
2023-02-09T14:58:31.142Z,12.77
2023-02-09T15:01:02.452Z,8.17
2023-02-09T15:03:30.188Z,9.90
2023-02-09T15:06:01.891Z,9.53
2023-02-09T15:08:33.894Z,27.30
2023-02-09T15:11:24.698Z,22.47
2023-02-09T15:13:57.885Z,7.13
2023-02-09T15:16:25.621Z,6.50
2023-02-09T15:18:53.115Z,10.53
2023-02-09T15:21:20.659Z,6.93
2023-02-09T15:23:48.965Z,24.20
2023-02-09T15:26:20.628Z,13.73
2023-02-09T15:28:49.675Z,16.50
2023-02-09T15:31:19.641Z,13.90
2023-02-09T15:33:49.423Z,13.43
2023-02-09T15:36:21.638Z,9.87
2023-02-09T15:38:51.199Z,11.63
2023-02-09T15:41:37.260Z,26.27
2023-02-09T15:44:39.651Z,48.47
2023-02-09T15:47:28.543Z,13.43
2023-02-09T15:50:01.739Z,16.17
2023-02-09T15:52:30.683Z,10.97
2023-02-09T15:55:02.529Z,14.00
2023-02-09T15:57:31.123Z,12.90
2023-02-09T15:59:59.202Z,12.73
2023-02-09T16:02:28.174Z,24.90
2023-02-09T16:04:56.584Z,17.40
2023-02-09T16:07:26.826Z,13.03
2023-02-09T16:09:54.437Z,10.33
2023-02-09T16:12:21.945Z,15.57
2023-02-09T16:14:51.705Z,10.80
2023-02-09T16:17:20.336Z,12.00
2023-02-09T16:19:49.188Z,7.67
2023-02-09T16:22:22.704Z,7.90
2023-02-09T16:24:50.339Z,9.33
2023-02-09T16:27:26.518Z,12.70
2023-02-09T16:29:54.879Z,8.27
2023-02-09T16:32:24.672Z,13.90
2023-02-09T16:35:04.570Z,7.17
2023-02-09T16:37:39.043Z,10.97
2023-02-09T16:40:21.226Z,7.77
2023-02-09T16:42:48.841Z,9.33
2023-02-09T16:45:18.601Z,7.43
2023-02-09T16:47:53.005Z,9.80
2023-02-09T16:50:40.419Z,13.40
2023-02-09T16:53:18.850Z,11.90
2023-02-09T16:55:49.284Z,11.77
2023-02-09T16:58:20.316Z,9.80
2023-02-09T17:00:51.106Z,10.10
2023-02-09T17:03:39.683Z,14.23
2023-02-09T17:06:15.760Z,8.53
2023-02-09T17:08:43.544Z,20.70
2023-02-09T17:11:18.595Z,9.30
2023-02-09T17:13:46.254Z,8.43
2023-02-09T17:16:24.735Z,9.37
2023-02-09T17:18:56.852Z,7.07
2023-02-09T17:21:36.396Z,7.83
2023-02-09T17:24:05.279Z,7.87
2023-02-09T17:26:33.204Z,15.43
2023-02-09T17:29:02.083Z,24.43
2023-02-09T17:31:47.093Z,21.43
2023-02-09T17:34:27.504Z,17.27
2023-02-09T17:36:57.014Z,46.00
2023-02-09T17:39:25.205Z,37.90
2023-02-09T17:41:53.073Z,63.27
2023-02-09T17:44:45.155Z,367.83
2023-02-09T17:47:21.274Z,155.83
2023-02-09T17:49:49.378Z,33.30
2023-02-09T17:52:21.502Z,32.37
2023-02-09T17:54:51.068Z,22.83
2023-02-09T17:57:21.038Z,50.37
2023-02-09T17:59:50.379Z,60.07
2023-02-09T18:02:23.685Z,81.07
2023-02-09T18:04:51.197Z,114.53
2023-02-09T18:07:21.858Z,99.10
2023-02-09T18:09:49.702Z,76.57
2023-02-09T18:12:28.781Z,38.67
2023-02-09T18:14:56.548Z,18.40
2023-02-09T18:17:25.846Z,20.10
2023-02-09T18:19:53.392Z,24.53
2023-02-09T18:22:22.923Z,26.73
2023-02-09T18:24:52.253Z,15.43
2023-02-09T18:27:21.162Z,8.57
2023-02-09T18:29:48.644Z,32.20
2023-02-09T18:32:18.117Z,9.60
2023-02-09T18:34:46.205Z,20.03
2023-02-09T18:37:15.891Z,57.70
2023-02-09T18:39:46.545Z,75.13
2023-02-09T18:42:16.819Z,33.13
2023-02-09T18:44:44.952Z,24.27
2023-02-09T18:47:13.794Z,41.60
2023-02-09T18:49:42.985Z,23.77
2023-02-09T18:52:15.344Z,37.00
2023-02-09T18:54:43.339Z,31.70
2023-02-09T18:57:12.057Z,27.33
2023-02-09T18:59:40.867Z,25.87
2023-02-09T19:02:14.568Z,42.93
2023-02-09T19:04:43.829Z,19.20
2023-02-09T19:07:12.477Z,11.20
2023-02-09T19:09:42.910Z,9.33
2023-02-09T19:12:10.894Z,9.00
2023-02-09T19:14:42.592Z,10.30
2023-02-09T19:17:16.005Z,11.00
2023-02-09T19:19:44.705Z,15.40
2023-02-09T19:22:18.182Z,20.10
2023-02-09T19:24:51.406Z,17.90
2023-02-09T19:27:27.410Z,24.37
2023-02-09T19:30:00.946Z,21.87
2023-02-09T19:32:28.507Z,12.57
2023-02-09T19:34:56.085Z,21.83
2023-02-09T19:37:23.814Z,16.67
2023-02-09T19:40:00.822Z,20.30
2023-02-09T19:42:28.393Z,13.50
2023-02-09T19:44:56.538Z,11.40
2023-02-09T19:47:28.581Z,12.47
2023-02-09T19:50:00.347Z,9.80
2023-02-09T19:52:31.577Z,26.37
2023-02-09T19:54:59.238Z,18.50
2023-02-09T19:57:27.139Z,9.80
2023-02-09T19:59:56.380Z,10.03
2023-02-09T20:02:23.948Z,10.03
2023-02-09T20:04:51.595Z,12.30
2023-02-09T20:07:19.332Z,12.37
2023-02-09T20:09:46.898Z,14.53
2023-02-09T20:12:16.588Z,31.63
2023-02-09T20:14:44.087Z,14.97
2023-02-09T20:17:11.675Z,12.37
2023-02-09T20:19:39.894Z,11.10
2023-02-09T20:22:07.385Z,11.10
2023-02-09T20:24:36.272Z,10.70
2023-02-09T20:27:04.905Z,10.37
2023-02-09T20:29:32.457Z,11.93
2023-02-09T20:32:02.618Z,22.87
2023-02-09T20:34:30.775Z,24.07
2023-02-09T20:36:58.276Z,22.17
2023-02-09T20:39:25.761Z,21.27
2023-02-09T20:42:17.992Z,28.17
2023-02-09T20:45:04.262Z,30.07
2023-02-09T20:47:32.385Z,58.80
2023-02-09T20:50:01.142Z,65.80
2023-02-09T20:52:29.545Z,64.93
2023-02-09T20:54:57.484Z,70.47
2023-02-09T20:57:31.657Z,48.90
2023-02-09T21:00:00.939Z,38.80
2023-02-09T21:02:29.685Z,24.63
2023-02-09T21:04:58.566Z,20.57
2023-02-09T21:07:26.398Z,22.77
2023-02-09T21:09:58.123Z,21.00
2023-02-09T21:12:26.471Z,23.70
2023-02-09T21:14:54.220Z,37.87
2023-02-09T21:17:23.536Z,55.57
2023-02-09T21:19:51.177Z,41.10
2023-02-09T21:22:26.010Z,43.23
2023-02-09T21:24:53.567Z,42.67
2023-02-09T21:27:21.184Z,46.17
2023-02-09T21:29:48.803Z,60.53
2023-02-09T21:32:17.469Z,59.17
2023-02-09T21:35:10.403Z,32.87
2023-02-09T21:37:39.245Z,23.97
2023-02-09T21:40:07.785Z,19.40
2023-02-09T21:42:38.498Z,17.00
2023-02-09T21:45:07.995Z,23.20
2023-02-09T21:47:38.849Z,26.03
2023-02-09T21:50:10.864Z,29.57
2023-02-09T21:52:38.789Z,25.83
2023-02-09T21:55:08.324Z,27.23
2023-02-09T21:57:38.789Z,33.23
2023-02-09T22:00:09.187Z,35.07
2023-02-09T22:02:37.016Z,30.37
2023-02-09T22:05:05.519Z,28.93
2023-02-09T22:07:36.314Z,37.13
2023-02-09T22:10:05.345Z,31.00
2023-02-09T22:12:34.255Z,23.10
2023-02-09T22:15:01.757Z,20.33
2023-02-09T22:17:29.230Z,15.90
2023-02-09T22:19:56.747Z,18.77
2023-02-09T22:22:24.259Z,16.57
2023-02-09T22:24:51.765Z,21.23
2023-02-09T22:27:20.634Z,30.20
2023-02-09T22:29:48.159Z,30.63
2023-02-09T22:32:15.584Z,31.10
2023-02-09T22:34:42.984Z,37.20
2023-02-09T22:37:10.486Z,40.93
2023-02-09T22:39:37.982Z,85.33
2023-02-09T22:42:05.913Z,86.77
2023-02-09T22:44:33.491Z,71.93
2023-02-09T22:47:00.974Z,52.83
2023-02-09T22:49:28.555Z,49.43
2023-02-09T22:51:57.055Z,47.40
2023-02-09T22:54:24.658Z,42.43
2023-02-09T22:56:52.174Z,44.97
2023-02-09T22:59:19.783Z,38.23
2023-02-09T23:01:48.140Z,33.00
2023-02-09T23:04:15.678Z,27.97
2023-02-09T23:06:43.231Z,26.30
2023-02-09T23:09:13.375Z,27.43
2023-02-09T23:11:41.403Z,42.00
2023-02-09T23:14:11.248Z,45.83
2023-02-09T23:16:42.138Z,57.30
2023-02-09T23:19:13.370Z,82.13
2023-02-09T23:21:48.980Z,64.10
2023-02-09T23:24:24.407Z,49.20
2023-02-09T23:26:53.080Z,48.23
2023-02-09T23:29:21.370Z,45.63
2023-02-09T23:31:49.282Z,37.87
2023-02-09T23:34:21.170Z,32.00
2023-02-09T23:36:49.424Z,40.13
2023-02-09T23:39:23.116Z,49.97
2023-02-09T23:41:50.703Z,46.77
2023-02-09T23:44:18.290Z,45.97
2023-02-09T23:46:48.428Z,47.77
2023-02-09T23:49:15.895Z,44.40
2023-02-09T23:51:46.631Z,43.80
2023-02-09T23:54:14.574Z,40.83
2023-02-09T23:56:42.207Z,34.57
2023-02-09T23:59:14.364Z,33.50
